createdAt,value
2023-05-14T00:02:14.888Z,6.30
2023-05-14T00:04:41.608Z,7.57
2023-05-14T00:07:08.276Z,9.02
2023-05-14T00:09:35.470Z,6.18
2023-05-14T00:12:04.826Z,7.50
2023-05-14T00:14:31.572Z,6.20
2023-05-14T00:16:59.587Z,6.82
2023-05-14T00:19:26.498Z,5.85
2023-05-14T00:21:53.137Z,7.28
2023-05-14T00:24:19.735Z,7.45
2023-05-14T00:26:46.460Z,6.47
2023-05-14T00:29:15.330Z,6.65
2023-05-14T00:31:42.121Z,9.73
2023-05-14T00:34:08.930Z,6.55
2023-05-14T00:36:37.904Z,9.05
2023-05-14T00:39:06.752Z,7.60
2023-05-14T00:41:33.400Z,6.40
2023-05-14T00:44:00.100Z,11.48
2023-05-14T00:46:27.352Z,5.82
2023-05-14T00:48:54.296Z,6.25
2023-05-14T00:51:27.949Z,7.82
2023-05-14T00:53:57.282Z,7.32
2023-05-14T00:56:24.884Z,7.40
2023-05-14T00:58:53.693Z,6.85
2023-05-14T01:01:22.878Z,9.40
2023-05-14T01:03:49.876Z,7.50
2023-05-14T01:07:07.715Z,5.72
2023-05-14T01:09:50.059Z,7.13
2023-05-14T01:12:30.082Z,6.55
2023-05-14T01:15:13.818Z,5.65
2023-05-14T01:17:51.020Z,5.97
2023-05-14T01:20:18.275Z,6.43
2023-05-14T01:22:47.032Z,8.35
2023-05-14T01:25:13.618Z,7.00
2023-05-14T01:27:50.100Z,5.93
2023-05-14T01:30:22.072Z,6.78
2023-05-14T01:32:54.834Z,8.65
2023-05-14T01:35:25.754Z,5.97
2023-05-14T01:37:57.665Z,6.78
2023-05-14T01:40:28.169Z,6.35
2023-05-14T01:42:55.412Z,7.25
2023-05-14T01:45:22.793Z,5.88
2023-05-14T01:47:52.549Z,7.32
2023-05-14T01:50:19.257Z,7.03
2023-05-14T01:52:46.021Z,7.63
2023-05-14T01:55:15.823Z,6.82
2023-05-14T01:57:42.331Z,9.43
2023-05-14T02:00:12.131Z,7.90
2023-05-14T02:02:38.949Z,8.50
2023-05-14T02:05:07.000Z,8.57
2023-05-14T02:07:33.981Z,6.72
2023-05-14T02:10:02.719Z,8.75
2023-05-14T02:12:29.366Z,7.40
2023-05-14T02:14:55.961Z,6.93
2023-05-14T02:17:22.505Z,6.78
2023-05-14T02:19:51.456Z,8.25
2023-05-14T02:22:18.050Z,7.68
2023-05-14T02:24:44.626Z,7.47
2023-05-14T02:27:12.900Z,6.95
2023-05-14T02:29:42.459Z,7.68
2023-05-14T02:32:09.223Z,7.10
2023-05-14T02:34:35.859Z,6.68
2023-05-14T02:37:05.001Z,6.75
2023-05-14T02:39:33.831Z,6.78
2023-05-14T02:42:03.158Z,6.80
2023-05-14T02:44:32.381Z,6.30
2023-05-14T02:46:58.966Z,7.00
2023-05-14T02:49:25.601Z,7.75
2023-05-14T02:51:54.516Z,6.70
2023-05-14T02:54:25.725Z,6.50
2023-05-14T02:56:54.809Z,7.65
2023-05-14T03:01:48.448Z,6.82
2023-05-14T03:04:20.005Z,6.20
2023-05-14T03:06:49.226Z,7.93
2023-05-14T03:09:15.769Z,6.75
2023-05-14T03:11:44.559Z,5.82
2023-05-14T03:14:13.339Z,7.65
2023-05-14T03:16:42.541Z,6.55
2023-05-14T03:19:09.952Z,6.22
2023-05-14T03:21:39.368Z,5.55
2023-05-14T03:24:06.174Z,7.68
2023-05-14T03:26:35.035Z,6.75
2023-05-14T03:29:02.448Z,5.93
2023-05-14T03:31:31.674Z,5.53
2023-05-14T03:33:58.438Z,6.80
2023-05-14T03:36:25.073Z,5.50
2023-05-14T03:38:56.847Z,5.97
2023-05-14T03:41:26.865Z,5.68
2023-05-14T03:43:53.454Z,8.32
2023-05-14T03:46:22.069Z,5.50
2023-05-14T03:48:48.641Z,6.82
2023-05-14T03:51:19.933Z,7.38
2023-05-14T03:53:49.227Z,5.57
2023-05-14T03:56:18.131Z,5.45
2023-05-14T03:58:47.280Z,6.13
2023-05-14T04:01:16.063Z,5.53
2023-05-14T04:03:45.115Z,7.13
2023-05-14T04:06:13.799Z,6.60
2023-05-14T04:08:40.327Z,5.25
2023-05-14T04:11:09.049Z,4.75
2023-05-14T04:13:35.618Z,4.80
2023-05-14T04:16:04.923Z,5.05
2023-05-14T04:18:35.019Z,5.57
2023-05-14T04:21:04.221Z,6.60
2023-05-14T04:23:31.866Z,5.10
2023-05-14T04:26:01.870Z,4.45
2023-05-14T04:28:31.446Z,5.45
2023-05-14T04:31:00.501Z,5.95
2023-05-14T04:35:55.873Z,4.70
2023-05-14T04:38:23.277Z,6.45
2023-05-14T04:40:49.817Z,6.03
2023-05-14T04:43:17.533Z,5.93
2023-05-14T04:45:44.290Z,4.90
2023-05-14T04:48:11.121Z,5.00
2023-05-14T04:50:40.018Z,5.28
2023-05-14T04:53:08.760Z,5.47
2023-05-14T04:55:35.335Z,4.22
2023-05-14T04:58:04.553Z,5.07
2023-05-14T05:00:33.537Z,5.07
2023-05-14T05:03:02.638Z,4.90
2023-05-14T05:05:29.278Z,5.78
2023-05-14T05:07:58.213Z,5.28
2023-05-14T05:10:25.338Z,5.07
2023-05-14T05:12:52.124Z,7.15
2023-05-14T05:15:23.260Z,5.45
2023-05-14T05:17:50.773Z,5.68
2023-05-14T05:20:20.262Z,5.55
2023-05-14T05:22:46.911Z,5.03
2023-05-14T05:25:16.240Z,5.20
2023-05-14T05:27:42.778Z,5.55
2023-05-14T05:30:09.973Z,6.45
2023-05-14T05:32:38.855Z,6.22
2023-05-14T05:35:06.565Z,7.40
2023-05-14T05:37:33.168Z,7.30
2023-05-14T05:40:04.102Z,6.15
2023-05-14T05:42:33.663Z,7.32
2023-05-14T05:45:00.218Z,8.52
2023-05-14T05:47:26.896Z,7.05
2023-05-14T05:49:54.092Z,7.18
2023-05-14T05:52:20.887Z,4.28
2023-05-14T05:54:49.998Z,5.35
2023-05-14T05:59:45.895Z,6.38
2023-05-14T06:02:12.646Z,5.53
2023-05-14T06:04:41.705Z,6.05
2023-05-14T06:09:34.782Z,6.53
2023-05-14T06:12:03.448Z,7.85
2023-05-14T06:14:32.518Z,6.65
2023-05-14T06:19:25.665Z,6.10
2023-05-14T06:21:52.220Z,6.28
2023-05-14T06:24:21.356Z,6.25
2023-05-14T06:26:49.338Z,5.88
2023-05-14T06:29:16.012Z,5.70
2023-05-14T06:31:45.024Z,7.80
2023-05-14T06:34:13.877Z,5.88
2023-05-14T06:36:42.657Z,7.50
2023-05-14T06:39:12.554Z,8.95
2023-05-14T06:41:41.481Z,6.45
2023-05-14T06:44:12.836Z,6.93
2023-05-14T06:46:39.788Z,5.88
2023-05-14T06:49:06.516Z,6.38
2023-05-14T06:51:33.289Z,6.82
2023-05-14T06:53:59.970Z,8.13
2023-05-14T06:56:26.622Z,6.53
2023-05-14T06:58:55.400Z,8.88
2023-05-14T07:01:22.617Z,5.45
2023-05-14T07:03:49.299Z,8.77
2023-05-14T07:06:18.129Z,6.18
2023-05-14T07:08:49.916Z,7.25
2023-05-14T07:11:16.551Z,5.90
2023-05-14T07:13:45.634Z,6.68
2023-05-14T07:18:38.729Z,9.50
2023-05-14T07:21:07.843Z,6.05
2023-05-14T07:26:08.011Z,5.75
2023-05-14T07:28:37.917Z,5.18
2023-05-14T07:31:08.885Z,6.60
2023-05-14T07:33:40.661Z,5.97
2023-05-14T07:36:09.954Z,5.25
2023-05-14T07:38:38.817Z,7.15
2023-05-14T07:41:05.531Z,4.90
2023-05-14T07:43:34.629Z,6.93
2023-05-14T07:48:27.650Z,6.90
2023-05-14T07:50:54.318Z,5.47
2023-05-14T07:53:21.082Z,6.30
2023-05-14T07:55:48.862Z,6.82
2023-05-14T07:58:16.166Z,7.78
2023-05-14T08:00:42.750Z,7.68
2023-05-14T08:03:09.434Z,6.13
2023-05-14T08:05:38.360Z,6.82
2023-05-14T08:08:10.697Z,6.70
2023-05-14T08:10:40.109Z,6.35
2023-05-14T08:13:09.680Z,6.93
2023-05-14T08:15:38.488Z,6.65
2023-05-14T08:18:05.062Z,6.97
2023-05-14T08:20:34.089Z,7.13
2023-05-14T08:25:30.069Z,5.60
2023-05-14T08:27:56.633Z,6.30
2023-05-14T08:30:23.600Z,7.70
2023-05-14T08:32:50.492Z,6.53
2023-05-14T08:35:18.105Z,6.63
2023-05-14T08:37:47.903Z,8.20
2023-05-14T08:40:14.612Z,8.73
2023-05-14T08:42:41.770Z,5.93
2023-05-14T08:45:15.328Z,6.30
2023-05-14T08:47:44.018Z,6.35
2023-05-14T08:50:13.401Z,6.47
2023-05-14T08:52:42.542Z,7.57
2023-05-14T08:55:13.171Z,7.65
2023-05-14T08:57:40.208Z,6.55
2023-05-14T09:00:08.649Z,6.53
2023-05-14T09:02:36.770Z,7.38
2023-05-14T09:05:07.376Z,6.97
2023-05-14T09:07:36.611Z,6.35
2023-05-14T09:10:04.033Z,6.40
2023-05-14T09:12:32.978Z,7.72
2023-05-14T09:14:59.531Z,5.75
2023-05-14T09:17:33.766Z,6.93
2023-05-14T09:20:00.652Z,6.50
2023-05-14T09:22:32.065Z,6.82
2023-05-14T09:25:05.806Z,7.07
2023-05-14T09:27:33.350Z,8.38
2023-05-14T09:30:11.777Z,7.95
2023-05-14T09:32:48.734Z,6.80
2023-05-14T09:35:17.747Z,7.22
2023-05-14T09:37:46.798Z,6.90
2023-05-14T09:40:16.543Z,6.97
2023-05-14T09:42:43.168Z,8.15
2023-05-14T09:45:10.891Z,8.48
2023-05-14T09:47:40.835Z,6.47
2023-05-14T09:50:08.344Z,7.18
2023-05-14T09:52:38.464Z,6.38
2023-05-14T09:55:05.667Z,7.40
2023-05-14T09:57:34.676Z,7.05
2023-05-14T10:02:37.652Z,6.25
2023-05-14T10:05:07.859Z,9.55
2023-05-14T10:07:42.606Z,9.65
2023-05-14T10:10:13.654Z,7.68
2023-05-14T10:12:40.742Z,6.32
2023-05-14T10:15:19.083Z,9.43
2023-05-14T10:17:51.944Z,8.50
2023-05-14T10:20:22.941Z,7.55
2023-05-14T10:22:49.711Z,8.40
2023-05-14T10:25:16.822Z,8.60
2023-05-14T10:27:44.125Z,9.35
2023-05-14T10:30:14.631Z,9.25
2023-05-14T10:32:42.140Z,8.70
2023-05-14T10:35:20.806Z,8.77
2023-05-14T10:37:51.216Z,8.18
2023-05-14T10:40:19.310Z,8.45
2023-05-14T10:42:51.833Z,8.05
2023-05-14T10:45:18.461Z,8.88
2023-05-14T10:47:51.128Z,8.55
2023-05-14T10:50:21.445Z,8.95
2023-05-14T10:52:51.346Z,9.82
2023-05-14T10:55:18.359Z,10.30
2023-05-14T10:57:46.325Z,7.22
2023-05-14T11:00:18.297Z,8.18
2023-05-14T11:02:45.174Z,9.05
2023-05-14T11:05:17.672Z,7.90
2023-05-14T11:07:50.005Z,8.98
2023-05-14T11:10:18.531Z,6.53
2023-05-14T11:12:50.884Z,7.32
2023-05-14T11:15:20.242Z,6.75
2023-05-14T11:17:48.358Z,8.35
2023-05-14T11:20:16.692Z,10.05
2023-05-14T11:22:44.431Z,7.32
2023-05-14T11:25:14.870Z,7.20
2023-05-14T11:27:43.909Z,7.50
2023-05-14T11:30:19.515Z,7.43
2023-05-14T11:32:47.820Z,8.80
2023-05-14T11:35:15.429Z,10.75
2023-05-14T11:37:42.874Z,8.60
2023-05-14T11:40:18.954Z,9.70
2023-05-14T11:42:45.938Z,8.73
2023-05-14T11:45:13.470Z,10.30
2023-05-14T11:47:41.876Z,11.00
2023-05-14T11:50:09.859Z,10.38
2023-05-14T11:52:43.709Z,9.27
2023-05-14T11:55:13.353Z,12.05
2023-05-14T11:57:42.964Z,8.88
2023-05-14T12:00:14.520Z,10.20
2023-05-14T12:02:44.142Z,8.30
2023-05-14T12:05:13.002Z,9.27
2023-05-14T12:07:39.783Z,10.13
2023-05-14T12:10:07.295Z,7.32
2023-05-14T12:12:37.318Z,11.20
2023-05-14T12:15:16.954Z,10.18
2023-05-14T12:17:52.534Z,8.02
2023-05-14T12:20:26.385Z,9.45
2023-05-14T12:22:53.062Z,10.30
2023-05-14T12:25:19.699Z,11.65
2023-05-14T12:27:48.507Z,7.90
2023-05-14T12:30:27.382Z,7.55
2023-05-14T12:32:54.081Z,8.63
2023-05-14T12:35:24.141Z,11.38
2023-05-14T12:37:50.964Z,9.98
2023-05-14T12:40:17.551Z,14.60
2023-05-14T12:42:48.955Z,11.20
2023-05-14T12:45:15.657Z,11.18
2023-05-14T12:47:42.225Z,10.02
2023-05-14T12:50:09.195Z,9.55
2023-05-14T12:52:39.171Z,9.65
2023-05-14T12:55:10.014Z,10.10
2023-05-14T12:57:39.767Z,9.65
2023-05-14T13:00:08.424Z,11.02
2023-05-14T13:02:42.133Z,9.32
2023-05-14T13:05:09.391Z,10.10
2023-05-14T13:07:36.162Z,10.60
2023-05-14T13:10:05.507Z,9.30
2023-05-14T13:12:34.337Z,9.43
2023-05-14T13:15:05.979Z,10.80
2023-05-14T13:17:32.685Z,9.43
2023-05-14T13:20:04.840Z,10.43
2023-05-14T13:22:31.418Z,13.63
2023-05-14T13:25:00.545Z,11.38
2023-05-14T13:27:27.219Z,10.65
2023-05-14T13:29:53.850Z,11.20
2023-05-14T13:32:20.446Z,9.50
2023-05-14T13:34:49.272Z,11.20
2023-05-14T13:37:15.889Z,12.50
2023-05-14T13:39:45.024Z,9.63
2023-05-14T13:42:11.645Z,12.77
2023-05-14T13:44:40.318Z,10.95
2023-05-14T13:47:07.216Z,11.23
2023-05-14T13:49:33.808Z,10.45
2023-05-14T13:52:02.442Z,12.05
2023-05-14T13:54:31.779Z,11.43
2023-05-14T13:57:01.336Z,11.85
2023-05-14T13:59:27.956Z,11.95
2023-05-14T14:01:54.681Z,11.27
2023-05-14T14:04:25.658Z,10.85
2023-05-14T14:06:52.169Z,13.20
2023-05-14T14:09:18.742Z,11.93
2023-05-14T14:11:47.580Z,11.77
2023-05-14T14:14:14.318Z,12.27
2023-05-14T14:16:41.112Z,11.65
2023-05-14T14:19:10.291Z,12.52
2023-05-14T14:24:08.622Z,10.82
2023-05-14T14:26:35.255Z,13.82
2023-05-14T14:29:04.838Z,14.13
2023-05-14T14:31:34.950Z,13.52
2023-05-14T14:34:03.655Z,13.18
2023-05-14T14:36:30.746Z,12.13
2023-05-14T14:39:02.310Z,12.63
2023-05-14T14:41:28.917Z,11.18
2023-05-14T14:43:55.520Z,13.25
2023-05-14T14:46:22.221Z,10.30
2023-05-14T14:48:48.860Z,10.13
2023-05-14T14:51:15.471Z,12.18
2023-05-14T14:53:42.124Z,9.60
2023-05-14T14:56:11.014Z,8.45
2023-05-14T14:58:38.453Z,8.05
2023-05-14T15:01:05.372Z,7.18
2023-05-14T15:03:32.465Z,7.63
2023-05-14T15:06:01.628Z,7.57
2023-05-14T15:08:30.658Z,7.13
2023-05-14T15:13:24.792Z,5.50
2023-05-14T15:15:52.663Z,7.22
2023-05-14T15:18:19.505Z,5.57
2023-05-14T15:20:48.788Z,6.28
2023-05-14T15:23:17.733Z,5.97
2023-05-14T15:25:49.175Z,7.70
2023-05-14T15:28:16.049Z,7.18
2023-05-14T15:30:42.747Z,6.40
2023-05-14T15:33:09.439Z,7.97
2023-05-14T15:35:36.751Z,5.88
2023-05-14T15:38:09.284Z,7.57
2023-05-14T15:40:38.175Z,5.28
2023-05-14T15:43:06.938Z,5.10
2023-05-14T15:45:33.561Z,7.47
2023-05-14T15:48:02.344Z,7.15
2023-05-14T15:50:28.971Z,9.15
2023-05-14T15:52:55.623Z,6.20
2023-05-14T15:55:25.133Z,6.22
2023-05-14T15:57:51.706Z,7.10
2023-05-14T16:00:24.858Z,7.38
2023-05-14T16:02:52.675Z,9.10
2023-05-14T16:05:19.502Z,6.60
2023-05-14T16:07:48.178Z,7.78
2023-05-14T16:10:16.973Z,7.25
2023-05-14T16:12:45.907Z,7.30
2023-05-14T16:15:14.748Z,8.70
2023-05-14T16:17:41.765Z,6.38
2023-05-14T16:20:09.622Z,7.68
2023-05-14T16:22:38.508Z,5.85
2023-05-14T16:25:05.922Z,5.70
2023-05-14T16:27:36.068Z,5.72
2023-05-14T16:30:02.803Z,6.30
2023-05-14T16:32:31.664Z,6.13
2023-05-14T16:35:02.565Z,5.85
2023-05-14T16:37:29.159Z,5.60
2023-05-14T16:39:55.878Z,6.78
2023-05-14T16:42:25.167Z,4.93
2023-05-14T16:44:51.787Z,6.78
2023-05-14T16:47:18.363Z,6.28
2023-05-14T16:49:47.192Z,5.43
2023-05-14T16:52:13.754Z,5.10
2023-05-14T16:54:43.276Z,5.32
2023-05-14T16:57:09.914Z,5.15
2023-05-14T16:59:41.733Z,5.68
2023-05-14T17:02:08.725Z,5.05
2023-05-14T17:04:38.772Z,5.70
2023-05-14T17:07:05.572Z,6.22
2023-05-14T17:09:32.098Z,5.15
2023-05-14T17:11:58.652Z,6.25
2023-05-14T17:18:16.833Z,5.07
2023-05-14T17:20:43.517Z,6.20
2023-05-14T17:23:10.067Z,5.43
2023-05-14T17:25:36.840Z,6.20
2023-05-14T17:28:03.659Z,6.57
2023-05-14T17:30:30.215Z,7.32
2023-05-14T17:32:59.921Z,5.88
2023-05-14T17:35:26.662Z,5.53
2023-05-14T17:37:53.301Z,7.60
2023-05-14T17:40:22.142Z,6.75
2023-05-14T17:42:51.191Z,8.63
2023-05-14T17:47:49.201Z,5.43
2023-05-14T17:50:15.955Z,7.07
2023-05-14T17:52:44.599Z,6.15
2023-05-14T17:55:13.611Z,6.97
2023-05-14T18:00:12.695Z,6.82
2023-05-14T18:02:43.130Z,6.85
2023-05-14T18:05:09.922Z,7.93
2023-05-14T18:07:38.817Z,6.78
2023-05-14T18:10:08.122Z,5.90
2023-05-14T18:12:34.902Z,5.18
2023-05-14T18:15:04.449Z,6.45
2023-05-14T18:17:33.373Z,6.35
2023-05-14T18:20:00.271Z,6.65
2023-05-14T18:22:26.888Z,9.18
2023-05-14T18:24:53.411Z,6.10
2023-05-14T18:27:20.066Z,8.15
2023-05-14T18:29:46.781Z,5.95
2023-05-14T18:32:13.336Z,7.80
2023-05-14T18:34:44.378Z,5.85
2023-05-14T18:37:13.712Z,8.02
2023-05-14T18:39:42.813Z,6.55
2023-05-14T18:44:36.582Z,7.22
2023-05-14T18:47:05.981Z,9.18
2023-05-14T18:49:34.780Z,9.70
2023-05-14T18:52:01.433Z,7.13
2023-05-14T18:54:30.092Z,8.20
2023-05-14T18:56:56.711Z,8.82
2023-05-14T18:59:26.252Z,8.57
2023-05-14T19:01:53.162Z,9.18
2023-05-14T19:04:26.994Z,8.77
2023-05-14T19:06:55.823Z,9.20
2023-05-14T19:09:22.915Z,9.13
2023-05-14T19:11:50.431Z,7.88
2023-05-14T19:14:16.974Z,7.95
2023-05-14T19:17:20.586Z,7.40
2023-05-14T19:26:43.095Z,10.68
2023-05-14T19:35:39.768Z,11.75
2023-05-14T19:41:46.901Z,7.45
2023-05-14T19:44:13.539Z,8.85
2023-05-14T19:46:40.635Z,9.52
2023-05-14T20:02:21.703Z,8.30
2023-05-14T20:04:48.434Z,7.13
2023-05-14T20:07:15.774Z,8.82
2023-05-14T20:09:42.504Z,8.52
2023-05-14T20:12:12.934Z,8.00
2023-05-14T20:14:41.055Z,7.80
2023-05-14T20:17:07.761Z,9.60
2023-05-14T20:19:41.466Z,7.45
2023-05-14T20:22:08.014Z,7.43
2023-05-14T20:24:34.589Z,7.28
2023-05-14T20:27:03.412Z,8.88
2023-05-14T20:29:32.341Z,9.00
2023-05-14T20:34:25.530Z,7.25
2023-05-14T20:36:55.223Z,7.60
2023-05-14T20:39:24.073Z,9.85
2023-05-14T20:41:50.650Z,8.85
2023-05-14T20:44:18.431Z,7.75
2023-05-14T20:46:49.750Z,7.53
2023-05-14T20:49:16.344Z,9.88
2023-05-14T20:51:45.196Z,7.30
2023-05-14T20:54:16.524Z,7.35
2023-05-14T20:56:43.278Z,7.97
2023-05-14T20:59:09.891Z,7.25
2023-05-14T21:01:39.604Z,8.52
2023-05-14T21:04:07.019Z,7.32
2023-05-14T21:06:33.736Z,10.77
2023-05-14T21:09:00.602Z,8.57
2023-05-14T21:11:29.763Z,7.28
2023-05-14T21:13:56.326Z,9.10
2023-05-14T21:16:25.861Z,9.60
2023-05-14T21:18:52.499Z,8.77
2023-05-14T21:21:19.089Z,9.68
2023-05-14T21:23:45.917Z,9.15
2023-05-14T21:26:12.912Z,8.05
2023-05-14T21:28:42.239Z,9.32
2023-05-14T21:31:11.707Z,8.57
2023-05-14T21:33:41.078Z,11.05
2023-05-14T21:36:10.974Z,12.00
2023-05-14T21:38:40.287Z,8.85
2023-05-14T21:41:06.873Z,7.30
2023-05-14T21:43:36.898Z,9.70
2023-05-14T21:46:05.990Z,8.50
2023-05-14T21:51:02.091Z,9.88
2023-05-14T21:53:28.690Z,8.82
2023-05-14T21:55:58.034Z,7.35
2023-05-14T21:58:24.677Z,8.02
2023-05-14T22:00:51.503Z,9.15
2023-05-14T22:03:22.917Z,8.38
2023-05-14T22:05:53.219Z,8.85
2023-05-14T22:08:19.830Z,7.68
2023-05-14T22:10:47.054Z,6.70
2023-05-14T22:13:16.068Z,8.63
2023-05-14T22:15:44.875Z,9.07
2023-05-14T22:18:15.486Z,7.25
2023-05-14T22:20:45.209Z,8.13
2023-05-14T22:23:11.914Z,5.80
2023-05-14T22:25:38.866Z,5.97
2023-05-14T22:28:08.075Z,6.65
2023-05-14T22:30:34.814Z,7.82
2023-05-14T22:33:01.447Z,6.63
2023-05-14T22:35:28.148Z,6.18
2023-05-14T22:37:59.504Z,6.43
2023-05-14T22:40:28.409Z,6.70
2023-05-14T22:42:57.510Z,5.68
2023-05-14T22:47:54.292Z,6.78
2023-05-14T22:50:20.914Z,6.85
2023-05-14T22:52:47.524Z,6.93
2023-05-14T22:55:16.236Z,7.18
2023-05-14T22:57:43.386Z,7.10
2023-05-14T23:00:11.496Z,6.70
2023-05-14T23:02:38.266Z,7.78
2023-05-14T23:05:08.557Z,7.78
2023-05-14T23:07:38.094Z,8.23
2023-05-14T23:10:07.402Z,9.25
2023-05-14T23:12:38.756Z,7.53
2023-05-14T23:15:08.361Z,9.27
2023-05-14T23:17:36.241Z,9.57
2023-05-14T23:20:06.058Z,8.27
2023-05-14T23:22:32.613Z,8.63
2023-05-14T23:24:59.450Z,8.02
2023-05-14T23:27:28.410Z,8.43
2023-05-14T23:29:57.665Z,8.23
2023-05-14T23:32:24.742Z,7.75
2023-05-14T23:34:53.876Z,6.97
2023-05-14T23:37:20.493Z,7.97
2023-05-14T23:39:49.769Z,7.13
2023-05-14T23:42:21.247Z,7.55
2023-05-14T23:44:52.579Z,8.00
2023-05-14T23:47:19.286Z,8.10
2023-05-14T23:49:45.858Z,6.55
2023-05-14T23:52:12.718Z,7.43
2023-05-14T23:54:41.488Z,8.45
2023-05-14T23:57:14.554Z,9.20
2023-05-14T23:59:41.255Z,7.63
